FAOR Airport Information

Runway Information
Airport Frequencies
Airport Navaids
Airport Weather Information & NOTAM
FAOR 082200Z 02012KT 9999 FEW015 07/05 Q1029 BECMG BKN010